createdAt,value
2019-02-27T00:02:27.635Z,3.80
2019-02-27T00:06:32.175Z,3.80
2019-02-27T00:10:55.870Z,3.70
2019-02-27T00:15:02.212Z,3.50
2019-02-27T00:19:06.699Z,3.60
2019-02-27T00:23:11.219Z,3.50
2019-02-27T00:27:15.751Z,3.50
2019-02-27T00:31:20.288Z,3.40
2019-02-27T00:35:24.823Z,3.30
2019-02-27T00:39:44.576Z,3.20
2019-02-27T00:43:49.187Z,3.20
2019-02-27T00:47:53.840Z,3.10
2019-02-27T00:51:58.380Z,3.00
2019-02-27T01:00:07.617Z,2.90
2019-02-27T01:04:12.154Z,2.90
2019-02-27T01:08:16.659Z,2.80
2019-02-27T01:12:22.895Z,2.80
2019-02-27T01:16:28.227Z,2.80
2019-02-27T01:20:33.007Z,2.60
2019-02-27T01:24:37.580Z,2.60
2019-02-27T01:30:07.924Z,2.50
2019-02-27T01:35:52.282Z,2.40
2019-02-27T01:39:56.879Z,2.40
2019-02-27T01:44:01.414Z,2.40
2019-02-27T01:53:30.268Z,2.40
2019-02-27T01:57:36.806Z,2.40
2019-02-27T02:01:41.097Z,2.40
2019-02-27T02:05:45.627Z,2.40
2019-02-27T02:09:54.998Z,2.40
2019-02-27T02:15:30.044Z,2.30
2019-02-27T02:20:27.232Z,2.30
2019-02-27T02:25:16.296Z,2.20
2019-02-27T02:32:03.440Z,2.10
2019-02-27T02:36:25.075Z,2.00
2019-02-27T02:42:07.789Z,2.00
2019-02-27T02:46:55.942Z,2.00
2019-02-27T02:51:41.682Z,1.80
2019-02-27T02:56:15.198Z,1.80
2019-02-27T03:00:46.932Z,1.80
2019-02-27T03:05:34.361Z,1.70
2019-02-27T03:10:10.036Z,1.60
2019-02-27T03:14:55.825Z,1.60
2019-02-27T03:23:15.692Z,1.50
2019-02-27T03:27:42.140Z,1.50
2019-02-27T03:32:07.327Z,1.50
2019-02-27T03:36:48.407Z,1.40
2019-02-27T03:41:41.238Z,1.50
2019-02-27T03:46:40.854Z,1.40
2019-02-27T03:51:16.785Z,1.40
2019-02-27T03:55:53.300Z,1.40
2019-02-27T04:00:33.527Z,1.30
2019-02-27T04:05:16.245Z,1.30
2019-02-27T04:09:20.745Z,1.20
2019-02-27T04:13:27.705Z,1.20
2019-02-27T04:17:29.857Z,1.10
2019-02-27T04:21:34.400Z,1.10
2019-02-27T04:25:38.915Z,1.10
2019-02-27T04:29:43.457Z,1.10
2019-02-27T04:33:48.112Z,1.10
2019-02-27T04:37:54.290Z,1.10
2019-02-27T04:41:58.824Z,1.10
2019-02-27T04:46:03.371Z,1.00
2019-02-27T04:50:10.909Z,1.00
2019-02-27T04:54:14.324Z,1.00
2019-02-27T04:58:18.862Z,1.00
2019-02-27T05:02:23.402Z,1.00
2019-02-27T05:13:39.755Z,1.00
2019-02-27T05:17:44.366Z,0.90
2019-02-27T05:21:52.246Z,0.90
2019-02-27T05:25:55.092Z,0.90
2019-02-27T05:30:00.095Z,0.90
2019-02-27T05:34:04.791Z,0.90
2019-02-27T05:38:09.276Z,0.90
2019-02-27T05:44:42.730Z,0.90
2019-02-27T05:52:48.806Z,0.90
2019-02-27T05:56:53.260Z,0.90
2019-02-27T06:00:57.793Z,0.90
2019-02-27T06:05:02.352Z,0.80
2019-02-27T06:09:09.878Z,0.80
2019-02-27T06:13:14.678Z,0.80
2019-02-27T06:17:19.308Z,0.70
2019-02-27T06:21:23.860Z,0.70
2019-02-27T06:25:28.396Z,0.70
2019-02-27T06:29:32.894Z,1.10
2019-02-27T06:33:37.454Z,1.40
2019-02-27T06:37:42.006Z,1.60
2019-02-27T06:41:47.431Z,1.70
2019-02-27T06:45:54.212Z,1.80
2019-02-27T06:49:58.893Z,1.30
2019-02-27T06:54:03.435Z,1.20
2019-02-27T06:58:08.038Z,1.10
2019-02-27T07:02:12.544Z,1.10
2019-02-27T07:06:21.367Z,1.10
2019-02-27T07:10:23.229Z,1.10
2019-02-27T07:14:28.064Z,1.10
2019-02-27T07:19:31.068Z,1.10
2019-02-27T07:23:35.652Z,1.20
2019-02-27T07:27:40.331Z,1.30
2019-02-27T07:31:44.876Z,1.20
2019-02-27T07:35:49.375Z,1.30
2019-02-27T07:39:53.953Z,1.40
2019-02-27T07:43:58.500Z,1.40
2019-02-27T07:48:03.052Z,1.50
2019-02-27T07:54:35.613Z,1.60
2019-02-27T07:58:40.184Z,1.80
2019-02-27T08:02:44.734Z,1.90
2019-02-27T08:06:49.288Z,2.00
2019-02-27T08:10:53.914Z,2.20
2019-02-27T08:18:47.189Z,2.50
2019-02-27T08:22:51.765Z,2.60
2019-02-27T08:26:56.293Z,2.70
2019-02-27T08:31:00.865Z,3.00
2019-02-27T08:35:05.607Z,3.10
2019-02-27T08:39:10.205Z,3.30
2019-02-27T08:43:14.736Z,3.60
2019-02-27T08:51:08.374Z,3.90
2019-02-27T09:00:23.299Z,4.30
2019-02-27T09:13:17.564Z,4.70
2019-02-27T09:20:34.012Z,5.00
2019-02-27T09:24:38.571Z,5.10
2019-02-27T09:28:44.488Z,5.30
2019-02-27T09:32:49.333Z,5.50
2019-02-27T09:36:53.908Z,5.60
2019-02-27T09:43:12.185Z,6.00
2019-02-27T09:47:16.750Z,6.10
2019-02-27T09:51:22.304Z,6.50
2019-02-27T10:02:49.744Z,7.10
2019-02-27T10:09:20.465Z,7.20
2019-02-27T10:13:25.067Z,7.50
2019-02-27T10:17:29.633Z,7.70
2019-02-27T10:21:34.191Z,8.00
2019-02-27T10:25:43.248Z,8.10
2019-02-27T10:29:47.505Z,8.50
2019-02-27T10:33:51.206Z,8.80
2019-02-27T10:37:55.797Z,9.10
2019-02-27T10:42:00.416Z,9.40
2019-02-27T10:46:04.994Z,9.70
2019-02-27T10:50:09.984Z,10.00
2019-02-27T10:54:14.566Z,10.20
2019-02-27T10:58:19.128Z,10.40
2019-02-27T11:02:23.809Z,10.60
2019-02-27T11:06:33.896Z,10.80
2019-02-27T11:10:34.626Z,11.00
2019-02-27T11:14:39.233Z,11.20
2019-02-27T11:18:43.797Z,11.40
2019-02-27T11:22:48.336Z,11.60
2019-02-27T11:26:52.913Z,11.80
2019-02-27T11:30:57.489Z,12.00
2019-02-27T11:35:02.053Z,12.10
2019-02-27T11:39:07.669Z,12.30
2019-02-27T11:43:12.199Z,12.40
2019-02-27T11:47:16.758Z,12.60
2019-02-27T11:51:21.346Z,12.70
2019-02-27T11:55:25.939Z,12.90
2019-02-27T11:59:30.504Z,13.10
2019-02-27T12:03:35.198Z,13.20
2019-02-27T12:07:39.802Z,13.40
2019-02-27T12:11:48.326Z,13.50
2019-02-27T12:15:50.661Z,13.70
2019-02-27T12:19:55.298Z,13.90
2019-02-27T12:23:59.855Z,14.10
2019-02-27T12:28:05.906Z,14.20
2019-02-27T12:32:10.498Z,14.40
2019-02-27T12:36:16.027Z,14.50
2019-02-27T12:40:24.983Z,14.60
2019-02-27T12:44:28.086Z,14.80
2019-02-27T12:48:32.658Z,14.90
2019-02-27T12:52:37.238Z,15.10
2019-02-27T12:56:44.460Z,15.30
2019-02-27T13:00:48.025Z,15.50
2019-02-27T13:04:53.195Z,15.50
2019-02-27T13:08:57.824Z,15.50
2019-02-27T13:13:02.439Z,15.50
2019-02-27T13:17:07.005Z,15.60
2019-02-27T13:21:11.573Z,15.60
2019-02-27T13:25:16.094Z,15.80
2019-02-27T13:29:21.385Z,15.90
2019-02-27T13:33:26.112Z,16.00
2019-02-27T13:37:30.675Z,16.10
2019-02-27T13:41:35.245Z,16.20
2019-02-27T13:45:39.818Z,16.40
2019-02-27T13:49:45.025Z,16.50
2019-02-27T13:53:50.587Z,16.70
2019-02-27T13:57:58.855Z,16.80
2019-02-27T14:02:04.158Z,16.90
2019-02-27T14:06:09.344Z,17.00
2019-02-27T14:10:17.159Z,17.20
2019-02-27T14:14:21.214Z,17.40
2019-02-27T14:18:25.793Z,17.50
2019-02-27T14:22:30.372Z,17.60
2019-02-27T14:26:34.934Z,17.70
2019-02-27T14:30:42.156Z,17.80
2019-02-27T14:34:46.732Z,17.90
2019-02-27T14:38:53.363Z,18.00
2019-02-27T14:42:57.595Z,18.10
2019-02-27T14:47:02.178Z,18.10
2019-02-27T14:51:07.994Z,18.20
2019-02-27T14:55:13.888Z,18.30
2019-02-27T14:59:18.480Z,18.40
2019-02-27T15:03:23.065Z,18.70
2019-02-27T15:07:27.665Z,19.00
2019-02-27T15:11:32.253Z,19.50
2019-02-27T15:15:43.742Z,19.90
2019-02-27T15:19:49.482Z,20.30
2019-02-27T15:23:54.218Z,20.70
2019-02-27T15:27:59.872Z,21.00
2019-02-27T15:32:04.530Z,21.30
2019-02-27T15:36:09.189Z,21.40
2019-02-27T15:40:16.005Z,21.60
2019-02-27T15:44:20.568Z,21.60
2019-02-27T15:48:25.233Z,21.40
2019-02-27T15:52:29.804Z,21.10
2019-02-27T15:56:34.404Z,20.80
2019-02-27T16:00:39.625Z,20.40
2019-02-27T16:04:44.190Z,20.10
2019-02-27T16:08:48.779Z,19.70
2019-02-27T16:12:53.350Z,19.40
2019-02-27T16:16:58.316Z,19.20
2019-02-27T16:21:03.001Z,18.90
2019-02-27T16:28:16.609Z,18.40
2019-02-27T16:32:21.230Z,18.20
2019-02-27T16:36:25.796Z,17.90
2019-02-27T16:40:30.375Z,17.70
2019-02-27T16:44:34.914Z,17.50
2019-02-27T16:48:39.496Z,17.30
2019-02-27T16:52:44.102Z,17.00
2019-02-27T16:56:50.891Z,16.80
2019-02-27T17:00:55.567Z,16.60
2019-02-27T17:05:00.319Z,16.30
2019-02-27T17:11:40.689Z,15.80
2019-02-27T17:15:45.216Z,15.60
2019-02-27T17:19:49.777Z,15.50
2019-02-27T17:23:54.320Z,15.30
2019-02-27T17:27:58.905Z,15.10
2019-02-27T17:32:03.461Z,14.80
2019-02-27T17:36:08.043Z,14.70
2019-02-27T17:40:13.137Z,14.40
2019-02-27T17:44:17.703Z,14.30
2019-02-27T17:48:22.273Z,14.00
2019-02-27T17:52:26.828Z,13.80
2019-02-27T17:56:31.370Z,13.70
2019-02-27T18:00:38.242Z,13.50
2019-02-27T18:04:45.320Z,13.40
2019-02-27T18:08:51.574Z,13.20
2019-02-27T18:12:55.256Z,13.10
2019-02-27T18:17:00.330Z,12.90
2019-02-27T18:21:05.002Z,12.80
2019-02-27T18:25:09.961Z,12.80
2019-02-27T18:29:14.516Z,12.60
2019-02-27T18:34:13.476Z,12.50
2019-02-27T18:38:18.048Z,12.40
2019-02-27T18:42:22.580Z,12.30
2019-02-27T18:46:27.152Z,12.20
2019-02-27T18:50:31.714Z,12.10
2019-02-27T18:54:36.281Z,12.40
2019-02-27T18:58:40.814Z,12.10
2019-02-27T19:02:45.425Z,11.80
2019-02-27T19:07:17.327Z,11.70
2019-02-27T19:11:22.466Z,11.60
2019-02-27T19:15:27.274Z,11.60
2019-02-27T19:19:31.807Z,11.50
2019-02-27T19:23:36.363Z,11.40
2019-02-27T19:27:41.048Z,11.30
2019-02-27T19:31:48.283Z,11.30
2019-02-27T19:35:55.858Z,11.20
2019-02-27T19:39:58.104Z,11.10
2019-02-27T19:44:02.672Z,11.00
2019-02-27T19:48:07.253Z,10.90
2019-02-27T19:52:11.842Z,10.70
2019-02-27T19:56:16.401Z,10.60
2019-02-27T20:00:22.792Z,10.50
2019-02-27T20:04:27.423Z,10.40
2019-02-27T20:08:31.956Z,10.30
2019-02-27T20:12:36.544Z,10.20
2019-02-27T20:16:41.123Z,10.10
2019-02-27T20:20:45.861Z,10.10
2019-02-27T20:24:50.544Z,10.40
2019-02-27T20:28:55.207Z,10.60
2019-02-27T20:33:02.493Z,10.70
2019-02-27T20:37:06.390Z,10.80
2019-02-27T20:41:11.888Z,10.80
2019-02-27T20:45:16.932Z,10.90
2019-02-27T20:49:21.516Z,10.90
2019-02-27T20:53:26.087Z,10.90
2019-02-27T20:57:30.645Z,10.80
2019-02-27T21:01:35.196Z,10.80
2019-02-27T21:05:40.835Z,10.70
2019-02-27T21:09:46.218Z,10.60
2019-02-27T21:13:50.833Z,10.60
2019-02-27T21:17:57.499Z,10.50
2019-02-27T21:22:01.595Z,10.40
2019-02-27T21:26:06.164Z,10.30
2019-02-27T21:30:17.763Z,10.30
2019-02-27T21:34:20.229Z,10.20
2019-02-27T21:38:24.921Z,10.10
2019-02-27T21:42:29.560Z,10.10
2019-02-27T21:46:34.110Z,10.10
2019-02-27T21:50:39.904Z,10.10
2019-02-27T21:54:44.989Z,10.10
2019-02-27T21:58:49.649Z,10.20
2019-02-27T22:02:54.528Z,10.20
2019-02-27T22:06:59.542Z,10.30
2019-02-27T22:11:04.358Z,10.20
2019-02-27T22:15:14.629Z,10.30
2019-02-27T22:19:20.029Z,10.20
2019-02-27T22:23:24.671Z,10.10
2019-02-27T22:27:29.281Z,10.10
2019-02-27T22:31:33.891Z,10.10
2019-02-27T22:35:38.620Z,10.00
2019-02-27T22:39:43.264Z,10.00
2019-02-27T22:43:47.860Z,10.00
2019-02-27T22:47:53.854Z,10.00
2019-02-27T22:51:58.670Z,10.00
2019-02-27T22:56:03.232Z,10.00
2019-02-27T23:00:29.656Z,10.00
2019-02-27T23:04:34.880Z,9.90
2019-02-27T23:08:39.874Z,9.90
2019-02-27T23:12:44.594Z,9.90
2019-02-27T23:16:49.174Z,9.80
2019-02-27T23:20:55.510Z,9.80
2019-02-27T23:25:00.027Z,9.70
2019-02-27T23:29:05.546Z,9.70
2019-02-27T23:33:10.888Z,9.70
2019-02-27T23:37:15.434Z,9.70
2019-02-27T23:41:22.925Z,9.70
2019-02-27T23:45:26.229Z,9.70
2019-02-27T23:49:30.802Z,9.70
2019-02-27T23:53:35.385Z,9.80
2019-02-27T23:57:40.105Z,9.70
